sensor_id;sensor_type;location;lat;lon;timestamp;P1;durP1;ratioP1;P2;durP2;ratioP2
14326;SDS011;7247;53.330;-1.180;2023-01-01T00:00:57;1.67;;;0.80;;
14326;SDS011;7247;53.330;-1.180;2023-01-01T00:03:24;1.50;;;0.83;;
14326;SDS011;7247;53.330;-1.180;2023-01-01T00:05:52;1.83;;;1.33;;
14326;SDS011;7247;53.330;-1.180;2023-01-01T00:08:18;0.83;;;0.80;;
14326;SDS011;7247;53.330;-1.180;2023-01-01T00:10:44;0.93;;;0.80;;
14326;SDS011;7247;53.330;-1.180;2023-01-01T00:13:11;1.50;;;0.60;;
14326;SDS011;7247;53.330;-1.180;2023-01-01T00:15:38;1.23;;;0.80;;
14326;SDS011;7247;53.330;-1.180;2023-01-01T00:18:04;1.63;;;0.80;;
14326;SDS011;7247;53.330;-1.180;2023-01-01T00:20:31;1.93;;;0.90;;
14326;SDS011;7247;53.330;-1.180;2023-01-01T00:22:58;2.40;;;1.90;;
14326;SDS011;7247;53.330;-1.180;2023-01-01T00:25:25;3.60;;;2.13;;
14326;SDS011;7247;53.330;-1.180;2023-01-01T00:27:51;2.17;;;1.97;;
14326;SDS011;7247;53.330;-1.180;2023-01-01T00:30:18;3.30;;;2.30;;
14326;SDS011;7247;53.330;-1.180;2023-01-01T00:32:44;3.60;;;2.40;;
14326;SDS011;7247;53.330;-1.180;2023-01-01T00:35:11;4.20;;;2.80;;
14326;SDS011;7247;53.330;-1.180;2023-01-01T00:37:37;5.27;;;3.87;;
14326;SDS011;7247;53.330;-1.180;2023-01-01T00:40:05;7.10;;;4.43;;
14326;SDS011;7247;53.330;-1.180;2023-01-01T00:42:32;8.47;;;5.47;;
14326;SDS011;7247;53.330;-1.180;2023-01-01T00:44:58;9.63;;;5.70;;
14326;SDS011;7247;53.330;-1.180;2023-01-01T00:47:25;10.37;;;6.37;;
14326;SDS011;7247;53.330;-1.180;2023-01-01T00:49:51;8.67;;;5.40;;
14326;SDS011;7247;53.330;-1.180;2023-01-01T00:52:17;9.03;;;5.13;;
14326;SDS011;7247;53.330;-1.180;2023-01-01T00:54:44;9.90;;;5.17;;
14326;SDS011;7247;53.330;-1.180;2023-01-01T00:57:12;10.97;;;5.37;;
14326;SDS011;7247;53.330;-1.180;2023-01-01T00:59:38;13.97;;;5.63;;
14326;SDS011;7247;53.330;-1.180;2023-01-01T01:02:04;9.40;;;5.10;;
14326;SDS011;7247;53.330;-1.180;2023-01-01T01:04:31;8.77;;;5.03;;
14326;SDS011;7247;53.330;-1.180;2023-01-01T01:06:57;8.03;;;4.13;;
14326;SDS011;7247;53.330;-1.180;2023-01-01T01:09:24;8.50;;;4.00;;
14326;SDS011;7247;53.330;-1.180;2023-01-01T01:11:50;8.57;;;3.70;;
14326;SDS011;7247;53.330;-1.180;2023-01-01T01:14:18;7.20;;;3.63;;
14326;SDS011;7247;53.330;-1.180;2023-01-01T01:16:44;5.73;;;3.30;;
14326;SDS011;7247;53.330;-1.180;2023-01-01T01:19:10;5.43;;;2.67;;
14326;SDS011;7247;53.330;-1.180;2023-01-01T01:21:42;5.23;;;2.93;;
14326;SDS011;7247;53.330;-1.180;2023-01-01T01:24:11;8.63;;;2.67;;
14326;SDS011;7247;53.330;-1.180;2023-01-01T01:26:38;6.73;;;2.80;;
14326;SDS011;7247;53.330;-1.180;2023-01-01T01:29:04;9.80;;;2.80;;
14326;SDS011;7247;53.330;-1.180;2023-01-01T01:31:32;7.63;;;3.10;;
14326;SDS011;7247;53.330;-1.180;2023-01-01T01:33:59;5.53;;;2.73;;
14326;SDS011;7247;53.330;-1.180;2023-01-01T01:36:26;5.53;;;2.50;;
14326;SDS011;7247;53.330;-1.180;2023-01-01T01:38:52;3.73;;;2.17;;
14326;SDS011;7247;53.330;-1.180;2023-01-01T01:41:20;10.50;;;2.43;;
14326;SDS011;7247;53.330;-1.180;2023-01-01T01:43:51;8.23;;;2.63;;
14326;SDS011;7247;53.330;-1.180;2023-01-01T01:46:18;5.27;;;2.60;;
14326;SDS011;7247;53.330;-1.180;2023-01-01T01:48:48;3.50;;;2.03;;
14326;SDS011;7247;53.330;-1.180;2023-01-01T01:51:17;6.00;;;1.77;;
14326;SDS011;7247;53.330;-1.180;2023-01-01T01:53:46;5.77;;;2.33;;
14326;SDS011;7247;53.330;-1.180;2023-01-01T01:56:15;6.23;;;2.00;;
14326;SDS011;7247;53.330;-1.180;2023-01-01T01:58:44;7.47;;;1.90;;
14326;SDS011;7247;53.330;-1.180;2023-01-01T02:01:11;5.83;;;2.07;;
14326;SDS011;7247;53.330;-1.180;2023-01-01T02:03:38;5.10;;;2.00;;
14326;SDS011;7247;53.330;-1.180;2023-01-01T02:06:07;5.73;;;2.53;;
14326;SDS011;7247;53.330;-1.180;2023-01-01T02:08:33;4.17;;;2.00;;
14326;SDS011;7247;53.330;-1.180;2023-01-01T02:11:00;4.40;;;1.57;;
14326;SDS011;7247;53.330;-1.180;2023-01-01T02:13:26;3.33;;;1.27;;
14326;SDS011;7247;53.330;-1.180;2023-01-01T02:15:54;6.27;;;1.70;;
14326;SDS011;7247;53.330;-1.180;2023-01-01T02:18:23;5.37;;;1.57;;
14326;SDS011;7247;53.330;-1.180;2023-01-01T02:20:51;2.97;;;1.43;;
14326;SDS011;7247;53.330;-1.180;2023-01-01T02:23:43;4.57;;;1.50;;
14326;SDS011;7247;53.330;-1.180;2023-01-01T02:26:23;3.63;;;1.30;;
14326;SDS011;7247;53.330;-1.180;2023-01-01T02:29:04;4.23;;;1.30;;
14326;SDS011;7247;53.330;-1.180;2023-01-01T02:31:33;3.30;;;1.13;;
14326;SDS011;7247;53.330;-1.180;2023-01-01T02:34:02;4.73;;;1.20;;
14326;SDS011;7247;53.330;-1.180;2023-01-01T02:36:29;4.73;;;1.07;;
14326;SDS011;7247;53.330;-1.180;2023-01-01T02:38:56;3.73;;;1.23;;
14326;SDS011;7247;53.330;-1.180;2023-01-01T02:41:24;3.77;;;1.27;;
14326;SDS011;7247;53.330;-1.180;2023-01-01T02:43:51;2.90;;;0.70;;
14326;SDS011;7247;53.330;-1.180;2023-01-01T02:46:19;4.47;;;1.17;;
14326;SDS011;7247;53.330;-1.180;2023-01-01T02:48:46;3.90;;;1.00;;
14326;SDS011;7247;53.330;-1.180;2023-01-01T02:51:15;3.27;;;0.93;;
14326;SDS011;7247;53.330;-1.180;2023-01-01T02:53:44;5.43;;;1.10;;
14326;SDS011;7247;53.330;-1.180;2023-01-01T02:56:14;5.17;;;1.50;;
14326;SDS011;7247;53.330;-1.180;2023-01-01T02:58:44;4.60;;;1.10;;
14326;SDS011;7247;53.330;-1.180;2023-01-01T03:01:31;6.80;;;1.40;;
14326;SDS011;7247;53.330;-1.180;2023-01-01T03:04:00;4.90;;;1.57;;
14326;SDS011;7247;53.330;-1.180;2023-01-01T03:06:30;5.83;;;1.30;;
14326;SDS011;7247;53.330;-1.180;2023-01-01T03:09:02;2.60;;;0.90;;
14326;SDS011;7247;53.330;-1.180;2023-01-01T03:11:34;5.63;;;1.20;;
14326;SDS011;7247;53.330;-1.180;2023-01-01T03:14:04;5.70;;;1.30;;
14326;SDS011;7247;53.330;-1.180;2023-01-01T03:16:35;4.83;;;1.27;;
14326;SDS011;7247;53.330;-1.180;2023-01-01T03:19:05;4.93;;;1.20;;
14326;SDS011;7247;53.330;-1.180;2023-01-01T03:21:38;6.73;;;1.47;;
14326;SDS011;7247;53.330;-1.180;2023-01-01T03:24:05;2.77;;;1.27;;
14326;SDS011;7247;53.330;-1.180;2023-01-01T03:26:33;3.40;;;1.30;;
14326;SDS011;7247;53.330;-1.180;2023-01-01T03:28:59;5.23;;;1.33;;
14326;SDS011;7247;53.330;-1.180;2023-01-01T03:31:27;3.07;;;1.10;;
14326;SDS011;7247;53.330;-1.180;2023-01-01T03:33:57;6.10;;;1.30;;
14326;SDS011;7247;53.330;-1.180;2023-01-01T03:36:27;4.73;;;1.27;;
14326;SDS011;7247;53.330;-1.180;2023-01-01T03:38:56;3.90;;;1.10;;
14326;SDS011;7247;53.330;-1.180;2023-01-01T03:41:25;4.07;;;1.10;;
14326;SDS011;7247;53.330;-1.180;2023-01-01T03:43:54;2.53;;;0.93;;
14326;SDS011;7247;53.330;-1.180;2023-01-01T03:46:22;3.03;;;1.20;;
14326;SDS011;7247;53.330;-1.180;2023-01-01T03:48:50;4.77;;;1.23;;
14326;SDS011;7247;53.330;-1.180;2023-01-01T03:51:24;5.27;;;1.17;;
14326;SDS011;7247;53.330;-1.180;2023-01-01T03:53:53;3.60;;;1.10;;
14326;SDS011;7247;53.330;-1.180;2023-01-01T03:56:21;5.20;;;1.10;;
14326;SDS011;7247;53.330;-1.180;2023-01-01T03:58:51;3.40;;;1.23;;
14326;SDS011;7247;53.330;-1.180;2023-01-01T04:01:20;6.57;;;1.50;;
14326;SDS011;7247;53.330;-1.180;2023-01-01T04:03:47;4.50;;;1.40;;
14326;SDS011;7247;53.330;-1.180;2023-01-01T04:06:14;5.83;;;1.20;;
14326;SDS011;7247;53.330;-1.180;2023-01-01T04:08:42;4.37;;;1.00;;
14326;SDS011;7247;53.330;-1.180;2023-01-01T04:11:10;4.97;;;1.10;;
14326;SDS011;7247;53.330;-1.180;2023-01-01T04:13:52;4.43;;;1.23;;
14326;SDS011;7247;53.330;-1.180;2023-01-01T04:16:19;7.50;;;1.40;;
14326;SDS011;7247;53.330;-1.180;2023-01-01T04:18:45;3.93;;;1.20;;
14326;SDS011;7247;53.330;-1.180;2023-01-01T04:21:12;3.93;;;1.53;;
14326;SDS011;7247;53.330;-1.180;2023-01-01T04:23:38;4.80;;;1.23;;
14326;SDS011;7247;53.330;-1.180;2023-01-01T04:26:09;8.63;;;1.53;;
14326;SDS011;7247;53.330;-1.180;2023-01-01T04:28:36;6.87;;;1.63;;
14326;SDS011;7247;53.330;-1.180;2023-01-01T04:31:02;8.60;;;1.60;;
14326;SDS011;7247;53.330;-1.180;2023-01-01T04:33:29;5.40;;;1.27;;
14326;SDS011;7247;53.330;-1.180;2023-01-01T04:36:01;8.60;;;1.77;;
14326;SDS011;7247;53.330;-1.180;2023-01-01T04:38:27;4.00;;;1.67;;
14326;SDS011;7247;53.330;-1.180;2023-01-01T04:40:57;9.17;;;1.80;;
14326;SDS011;7247;53.330;-1.180;2023-01-01T04:43:25;5.40;;;1.73;;
14326;SDS011;7247;53.330;-1.180;2023-01-01T04:45:54;5.53;;;1.40;;
14326;SDS011;7247;53.330;-1.180;2023-01-01T04:48:20;10.43;;;1.60;;
14326;SDS011;7247;53.330;-1.180;2023-01-01T04:50:52;9.27;;;1.77;;
14326;SDS011;7247;53.330;-1.180;2023-01-01T04:53:18;7.73;;;1.50;;
14326;SDS011;7247;53.330;-1.180;2023-01-01T04:55:45;6.40;;;1.73;;
14326;SDS011;7247;53.330;-1.180;2023-01-01T04:58:11;6.20;;;1.60;;
14326;SDS011;7247;53.330;-1.180;2023-01-01T05:00:39;7.63;;;1.73;;
14326;SDS011;7247;53.330;-1.180;2023-01-01T05:03:06;8.07;;;1.87;;
14326;SDS011;7247;53.330;-1.180;2023-01-01T05:05:32;8.30;;;1.90;;
14326;SDS011;7247;53.330;-1.180;2023-01-01T05:07:58;7.23;;;1.70;;
14326;SDS011;7247;53.330;-1.180;2023-01-01T05:10:25;11.63;;;2.00;;
14326;SDS011;7247;53.330;-1.180;2023-01-01T05:12:51;11.47;;;1.90;;
14326;SDS011;7247;53.330;-1.180;2023-01-01T05:15:18;8.60;;;1.90;;
14326;SDS011;7247;53.330;-1.180;2023-01-01T05:17:45;8.10;;;1.80;;
14326;SDS011;7247;53.330;-1.180;2023-01-01T05:20:12;7.37;;;1.60;;
14326;SDS011;7247;53.330;-1.180;2023-01-01T05:22:38;6.23;;;1.50;;
14326;SDS011;7247;53.330;-1.180;2023-01-01T05:25:05;7.07;;;1.43;;
14326;SDS011;7247;53.330;-1.180;2023-01-01T05:27:31;8.40;;;1.70;;
14326;SDS011;7247;53.330;-1.180;2023-01-01T05:29:58;5.60;;;1.77;;
14326;SDS011;7247;53.330;-1.180;2023-01-01T05:32:24;8.70;;;1.80;;
14326;SDS011;7247;53.330;-1.180;2023-01-01T05:34:52;7.97;;;1.70;;
14326;SDS011;7247;53.330;-1.180;2023-01-01T05:37:19;9.97;;;2.07;;
14326;SDS011;7247;53.330;-1.180;2023-01-01T05:39:45;5.67;;;1.60;;
14326;SDS011;7247;53.330;-1.180;2023-01-01T05:42:12;9.33;;;1.80;;
14326;SDS011;7247;53.330;-1.180;2023-01-01T05:44:39;8.87;;;1.80;;
14326;SDS011;7247;53.330;-1.180;2023-01-01T05:47:06;13.73;;;2.00;;
14326;SDS011;7247;53.330;-1.180;2023-01-01T05:49:32;8.27;;;1.90;;
14326;SDS011;7247;53.330;-1.180;2023-01-01T05:52:01;7.90;;;1.73;;
14326;SDS011;7247;53.330;-1.180;2023-01-01T05:54:28;6.53;;;1.70;;
14326;SDS011;7247;53.330;-1.180;2023-01-01T05:56:54;10.07;;;2.10;;
14326;SDS011;7247;53.330;-1.180;2023-01-01T05:59:21;10.93;;;2.20;;
14326;SDS011;7247;53.330;-1.180;2023-01-01T06:01:47;11.17;;;2.80;;
14326;SDS011;7247;53.330;-1.180;2023-01-01T06:04:13;8.33;;;2.10;;
14326;SDS011;7247;53.330;-1.180;2023-01-01T06:06:40;8.70;;;1.67;;
14326;SDS011;7247;53.330;-1.180;2023-01-01T06:09:09;8.53;;;2.10;;
14326;SDS011;7247;53.330;-1.180;2023-01-01T06:11:36;8.17;;;1.80;;
14326;SDS011;7247;53.330;-1.180;2023-01-01T06:14:02;10.27;;;2.10;;
14326;SDS011;7247;53.330;-1.180;2023-01-01T06:16:29;10.63;;;2.30;;
14326;SDS011;7247;53.330;-1.180;2023-01-01T06:18:56;10.53;;;1.70;;
14326;SDS011;7247;53.330;-1.180;2023-01-01T06:21:23;8.73;;;2.40;;
14326;SDS011;7247;53.330;-1.180;2023-01-01T06:23:50;9.03;;;2.23;;
14326;SDS011;7247;53.330;-1.180;2023-01-01T06:26:19;5.97;;;1.83;;
14326;SDS011;7247;53.330;-1.180;2023-01-01T06:28:45;6.83;;;1.90;;
14326;SDS011;7247;53.330;-1.180;2023-01-01T06:31:13;7.90;;;1.83;;
14326;SDS011;7247;53.330;-1.180;2023-01-01T06:33:40;6.60;;;1.97;;
14326;SDS011;7247;53.330;-1.180;2023-01-01T06:36:07;9.90;;;2.03;;
14326;SDS011;7247;53.330;-1.180;2023-01-01T06:38:34;10.73;;;1.90;;
14326;SDS011;7247;53.330;-1.180;2023-01-01T06:41:02;7.43;;;1.83;;
14326;SDS011;7247;53.330;-1.180;2023-01-01T06:43:31;11.90;;;2.20;;
14326;SDS011;7247;53.330;-1.180;2023-01-01T06:45:58;8.20;;;2.00;;
14326;SDS011;7247;53.330;-1.180;2023-01-01T06:48:24;10.67;;;2.00;;
14326;SDS011;7247;53.330;-1.180;2023-01-01T06:50:51;7.30;;;2.17;;
14326;SDS011;7247;53.330;-1.180;2023-01-01T06:53:17;8.03;;;2.03;;
14326;SDS011;7247;53.330;-1.180;2023-01-01T06:55:46;7.73;;;1.80;;
14326;SDS011;7247;53.330;-1.180;2023-01-01T06:58:13;10.57;;;2.37;;
14326;SDS011;7247;53.330;-1.180;2023-01-01T07:00:41;9.73;;;2.13;;
14326;SDS011;7247;53.330;-1.180;2023-01-01T07:03:08;9.10;;;1.93;;
14326;SDS011;7247;53.330;-1.180;2023-01-01T07:05:34;11.47;;;2.00;;
14326;SDS011;7247;53.330;-1.180;2023-01-01T07:08:02;7.80;;;2.30;;
14326;SDS011;7247;53.330;-1.180;2023-01-01T07:10:28;8.27;;;2.00;;
14326;SDS011;7247;53.330;-1.180;2023-01-01T07:12:54;9.27;;;2.43;;
14326;SDS011;7247;53.330;-1.180;2023-01-01T07:15:21;9.47;;;2.23;;
14326;SDS011;7247;53.330;-1.180;2023-01-01T07:17:49;10.63;;;2.70;;
14326;SDS011;7247;53.330;-1.180;2023-01-01T07:20:15;8.77;;;2.17;;
14326;SDS011;7247;53.330;-1.180;2023-01-01T07:22:41;9.60;;;2.00;;
14326;SDS011;7247;53.330;-1.180;2023-01-01T07:25:08;11.40;;;2.80;;
14326;SDS011;7247;53.330;-1.180;2023-01-01T07:27:35;11.77;;;2.30;;
14326;SDS011;7247;53.330;-1.180;2023-01-01T07:30:02;13.23;;;2.20;;
14326;SDS011;7247;53.330;-1.180;2023-01-01T07:32:29;14.30;;;2.70;;
14326;SDS011;7247;53.330;-1.180;2023-01-01T07:34:56;7.90;;;1.93;;
14326;SDS011;7247;53.330;-1.180;2023-01-01T07:37:23;7.77;;;1.90;;
14326;SDS011;7247;53.330;-1.180;2023-01-01T07:39:50;8.00;;;1.90;;
14326;SDS011;7247;53.330;-1.180;2023-01-01T07:42:17;6.43;;;1.53;;
14326;SDS011;7247;53.330;-1.180;2023-01-01T07:44:43;7.67;;;2.20;;
14326;SDS011;7247;53.330;-1.180;2023-01-01T07:47:13;8.77;;;1.67;;
14326;SDS011;7247;53.330;-1.180;2023-01-01T07:49:44;9.30;;;1.80;;
14326;SDS011;7247;53.330;-1.180;2023-01-01T07:52:11;7.53;;;1.73;;
14326;SDS011;7247;53.330;-1.180;2023-01-01T07:54:38;10.90;;;2.20;;
14326;SDS011;7247;53.330;-1.180;2023-01-01T07:57:04;10.20;;;2.47;;
14326;SDS011;7247;53.330;-1.180;2023-01-01T07:59:30;12.10;;;2.53;;
14326;SDS011;7247;53.330;-1.180;2023-01-01T08:01:57;12.13;;;2.40;;
14326;SDS011;7247;53.330;-1.180;2023-01-01T08:04:23;13.33;;;2.33;;
14326;SDS011;7247;53.330;-1.180;2023-01-01T08:06:50;14.00;;;2.53;;
14326;SDS011;7247;53.330;-1.180;2023-01-01T08:09:18;13.10;;;2.83;;
14326;SDS011;7247;53.330;-1.180;2023-01-01T08:11:44;13.53;;;2.77;;
14326;SDS011;7247;53.330;-1.180;2023-01-01T08:14:11;9.73;;;2.37;;
14326;SDS011;7247;53.330;-1.180;2023-01-01T08:16:38;11.90;;;2.60;;
14326;SDS011;7247;53.330;-1.180;2023-01-01T08:19:04;7.50;;;1.97;;
14326;SDS011;7247;53.330;-1.180;2023-01-01T08:21:31;13.77;;;2.40;;
14326;SDS011;7247;53.330;-1.180;2023-01-01T08:23:57;9.03;;;2.17;;
14326;SDS011;7247;53.330;-1.180;2023-01-01T08:26:29;8.67;;;2.03;;
14326;SDS011;7247;53.330;-1.180;2023-01-01T08:28:55;9.37;;;2.70;;
14326;SDS011;7247;53.330;-1.180;2023-01-01T08:31:22;11.67;;;2.17;;
14326;SDS011;7247;53.330;-1.180;2023-01-01T08:33:48;11.10;;;2.50;;
14326;SDS011;7247;53.330;-1.180;2023-01-01T08:36:14;8.53;;;2.07;;
14326;SDS011;7247;53.330;-1.180;2023-01-01T08:38:41;7.43;;;1.90;;
14326;SDS011;7247;53.330;-1.180;2023-01-01T08:41:07;9.33;;;2.03;;
14326;SDS011;7247;53.330;-1.180;2023-01-01T08:43:35;9.50;;;2.23;;
14326;SDS011;7247;53.330;-1.180;2023-01-01T08:46:02;11.00;;;1.87;;
14326;SDS011;7247;53.330;-1.180;2023-01-01T08:48:28;9.33;;;2.10;;
14326;SDS011;7247;53.330;-1.180;2023-01-01T08:50:55;9.40;;;2.13;;
14326;SDS011;7247;53.330;-1.180;2023-01-01T08:53:24;6.53;;;1.80;;
14326;SDS011;7247;53.330;-1.180;2023-01-01T08:55:54;7.20;;;1.70;;
14326;SDS011;7247;53.330;-1.180;2023-01-01T08:58:20;9.63;;;2.20;;
14326;SDS011;7247;53.330;-1.180;2023-01-01T09:00:48;7.77;;;1.93;;
14326;SDS011;7247;53.330;-1.180;2023-01-01T09:03:15;7.17;;;1.73;;
14326;SDS011;7247;53.330;-1.180;2023-01-01T09:05:41;10.53;;;1.60;;
14326;SDS011;7247;53.330;-1.180;2023-01-01T09:08:09;8.43;;;1.80;;
14326;SDS011;7247;53.330;-1.180;2023-01-01T09:10:36;8.97;;;2.33;;
14326;SDS011;7247;53.330;-1.180;2023-01-01T09:13:02;6.60;;;1.97;;
14326;SDS011;7247;53.330;-1.180;2023-01-01T09:15:29;10.20;;;2.00;;
14326;SDS011;7247;53.330;-1.180;2023-01-01T09:17:56;7.93;;;1.90;;
14326;SDS011;7247;53.330;-1.180;2023-01-01T09:20:23;8.80;;;2.20;;
14326;SDS011;7247;53.330;-1.180;2023-01-01T09:22:49;7.57;;;1.70;;
14326;SDS011;7247;53.330;-1.180;2023-01-01T09:25:16;8.07;;;2.43;;
14326;SDS011;7247;53.330;-1.180;2023-01-01T09:27:42;9.60;;;2.30;;
14326;SDS011;7247;53.330;-1.180;2023-01-01T09:30:09;5.37;;;2.13;;
14326;SDS011;7247;53.330;-1.180;2023-01-01T09:32:37;6.27;;;1.90;;
14326;SDS011;7247;53.330;-1.180;2023-01-01T09:35:05;6.77;;;1.87;;
14326;SDS011;7247;53.330;-1.180;2023-01-01T09:37:31;9.50;;;2.10;;
14326;SDS011;7247;53.330;-1.180;2023-01-01T09:39:58;9.90;;;2.10;;
14326;SDS011;7247;53.330;-1.180;2023-01-01T09:42:27;10.47;;;2.27;;
14326;SDS011;7247;53.330;-1.180;2023-01-01T09:45:01;8.97;;;2.57;;
14326;SDS011;7247;53.330;-1.180;2023-01-01T09:47:30;10.30;;;2.43;;
14326;SDS011;7247;53.330;-1.180;2023-01-01T09:49:58;13.17;;;2.77;;
14326;SDS011;7247;53.330;-1.180;2023-01-01T09:52:29;13.43;;;2.37;;
14326;SDS011;7247;53.330;-1.180;2023-01-01T09:55:00;11.73;;;2.30;;
14326;SDS011;7247;53.330;-1.180;2023-01-01T09:57:28;9.13;;;2.60;;
14326;SDS011;7247;53.330;-1.180;2023-01-01T09:59:55;13.87;;;2.83;;
14326;SDS011;7247;53.330;-1.180;2023-01-01T10:02:31;15.00;;;2.43;;
14326;SDS011;7247;53.330;-1.180;2023-01-01T10:05:02;14.63;;;2.63;;
14326;SDS011;7247;53.330;-1.180;2023-01-01T10:07:35;11.37;;;2.53;;
14326;SDS011;7247;53.330;-1.180;2023-01-01T10:10:08;12.53;;;2.70;;
14326;SDS011;7247;53.330;-1.180;2023-01-01T10:12:40;12.73;;;2.70;;
14326;SDS011;7247;53.330;-1.180;2023-01-01T10:15:12;11.93;;;2.90;;
14326;SDS011;7247;53.330;-1.180;2023-01-01T10:17:41;7.87;;;2.30;;
14326;SDS011;7247;53.330;-1.180;2023-01-01T10:20:13;17.60;;;3.10;;
14326;SDS011;7247;53.330;-1.180;2023-01-01T10:22:43;10.93;;;2.83;;
14326;SDS011;7247;53.330;-1.180;2023-01-01T10:25:14;15.90;;;3.23;;
14326;SDS011;7247;53.330;-1.180;2023-01-01T10:27:43;12.73;;;3.10;;
14326;SDS011;7247;53.330;-1.180;2023-01-01T10:30:12;15.90;;;3.33;;
14326;SDS011;7247;53.330;-1.180;2023-01-01T10:32:40;13.03;;;3.40;;
14326;SDS011;7247;53.330;-1.180;2023-01-01T10:35:10;15.17;;;3.27;;
14326;SDS011;7247;53.330;-1.180;2023-01-01T10:37:37;15.77;;;3.23;;
14326;SDS011;7247;53.330;-1.180;2023-01-01T10:40:08;19.63;;;3.43;;
14326;SDS011;7247;53.330;-1.180;2023-01-01T10:42:38;13.40;;;2.93;;
14326;SDS011;7247;53.330;-1.180;2023-01-01T10:45:05;17.23;;;3.43;;
14326;SDS011;7247;53.330;-1.180;2023-01-01T10:47:37;19.17;;;3.50;;
14326;SDS011;7247;53.330;-1.180;2023-01-01T10:50:04;16.23;;;3.13;;
14326;SDS011;7247;53.330;-1.180;2023-01-01T10:52:33;18.40;;;4.07;;
14326;SDS011;7247;53.330;-1.180;2023-01-01T10:55:00;12.07;;;3.27;;
14326;SDS011;7247;53.330;-1.180;2023-01-01T10:57:32;18.30;;;4.03;;
14326;SDS011;7247;53.330;-1.180;2023-01-01T11:00:19;15.57;;;3.60;;
14326;SDS011;7247;53.330;-1.180;2023-01-01T11:02:46;13.17;;;3.27;;
14326;SDS011;7247;53.330;-1.180;2023-01-01T11:05:14;16.23;;;3.43;;
14326;SDS011;7247;53.330;-1.180;2023-01-01T11:07:40;13.80;;;3.13;;
14326;SDS011;7247;53.330;-1.180;2023-01-01T11:10:11;15.63;;;2.93;;
14326;SDS011;7247;53.330;-1.180;2023-01-01T11:12:41;18.30;;;3.20;;
14326;SDS011;7247;53.330;-1.180;2023-01-01T11:15:18;14.93;;;3.97;;
14326;SDS011;7247;53.330;-1.180;2023-01-01T11:17:45;14.30;;;3.10;;
14326;SDS011;7247;53.330;-1.180;2023-01-01T11:20:15;11.97;;;2.83;;
14326;SDS011;7247;53.330;-1.180;2023-01-01T11:22:42;15.53;;;3.23;;
14326;SDS011;7247;53.330;-1.180;2023-01-01T11:25:21;15.07;;;3.83;;
14326;SDS011;7247;53.330;-1.180;2023-01-01T11:27:49;21.07;;;4.57;;
14326;SDS011;7247;53.330;-1.180;2023-01-01T11:30:23;23.27;;;3.97;;
14326;SDS011;7247;53.330;-1.180;2023-01-01T11:32:50;17.20;;;3.37;;
14326;SDS011;7247;53.330;-1.180;2023-01-01T11:35:18;19.20;;;3.67;;
14326;SDS011;7247;53.330;-1.180;2023-01-01T11:37:45;16.03;;;3.30;;
14326;SDS011;7247;53.330;-1.180;2023-01-01T11:40:17;18.83;;;3.50;;
14326;SDS011;7247;53.330;-1.180;2023-01-01T11:42:45;22.90;;;4.33;;
14326;SDS011;7247;53.330;-1.180;2023-01-01T11:45:15;18.40;;;4.00;;
14326;SDS011;7247;53.330;-1.180;2023-01-01T11:47:44;16.47;;;3.50;;
14326;SDS011;7247;53.330;-1.180;2023-01-01T11:50:17;18.53;;;3.53;;
14326;SDS011;7247;53.330;-1.180;2023-01-01T11:52:45;20.13;;;3.43;;
14326;SDS011;7247;53.330;-1.180;2023-01-01T11:55:14;17.73;;;4.17;;
14326;SDS011;7247;53.330;-1.180;2023-01-01T11:57:45;19.13;;;4.03;;
14326;SDS011;7247;53.330;-1.180;2023-01-01T12:00:15;16.27;;;5.00;;
14326;SDS011;7247;53.330;-1.180;2023-01-01T12:02:43;22.63;;;7.43;;
14326;SDS011;7247;53.330;-1.180;2023-01-01T12:05:14;19.53;;;5.90;;
14326;SDS011;7247;53.330;-1.180;2023-01-01T12:07:41;13.43;;;3.77;;
14326;SDS011;7247;53.330;-1.180;2023-01-01T12:10:11;10.50;;;3.23;;
14326;SDS011;7247;53.330;-1.180;2023-01-01T12:12:41;7.97;;;2.53;;
14326;SDS011;7247;53.330;-1.180;2023-01-01T12:15:14;8.73;;;1.87;;
14326;SDS011;7247;53.330;-1.180;2023-01-01T12:17:43;8.17;;;1.67;;
14326;SDS011;7247;53.330;-1.180;2023-01-01T12:20:13;4.20;;;1.20;;
14326;SDS011;7247;53.330;-1.180;2023-01-01T12:22:45;4.33;;;1.30;;
14326;SDS011;7247;53.330;-1.180;2023-01-01T12:25:12;5.47;;;1.40;;
14326;SDS011;7247;53.330;-1.180;2023-01-01T12:27:46;5.03;;;1.40;;
14326;SDS011;7247;53.330;-1.180;2023-01-01T12:30:19;2.23;;;0.93;;
14326;SDS011;7247;53.330;-1.180;2023-01-01T12:35:42;5.50;;;1.53;;
14326;SDS011;7247;53.330;-1.180;2023-01-01T12:38:12;2.50;;;1.10;;
14326;SDS011;7247;53.330;-1.180;2023-01-01T12:40:41;3.47;;;1.10;;
14326;SDS011;7247;53.330;-1.180;2023-01-01T12:43:14;2.50;;;0.83;;
14326;SDS011;7247;53.330;-1.180;2023-01-01T12:45:47;2.77;;;0.90;;
14326;SDS011;7247;53.330;-1.180;2023-01-01T12:48:28;2.53;;;1.00;;
14326;SDS011;7247;53.330;-1.180;2023-01-01T12:50:58;2.83;;;0.97;;
14326;SDS011;7247;53.330;-1.180;2023-01-01T12:53:27;2.53;;;1.00;;
14326;SDS011;7247;53.330;-1.180;2023-01-01T12:58:43;3.47;;;1.03;;
14326;SDS011;7247;53.330;-1.180;2023-01-01T13:01:11;1.67;;;0.83;;
14326;SDS011;7247;53.330;-1.180;2023-01-01T13:03:41;3.90;;;0.90;;
14326;SDS011;7247;53.330;-1.180;2023-01-01T13:06:13;2.73;;;1.00;;
14326;SDS011;7247;53.330;-1.180;2023-01-01T13:08:41;2.63;;;0.90;;
14326;SDS011;7247;53.330;-1.180;2023-01-01T13:11:08;3.37;;;1.20;;
14326;SDS011;7247;53.330;-1.180;2023-01-01T13:13:35;5.63;;;1.20;;
14326;SDS011;7247;53.330;-1.180;2023-01-01T13:16:02;4.50;;;1.53;;
14326;SDS011;7247;53.330;-1.180;2023-01-01T13:18:30;6.27;;;1.87;;
14326;SDS011;7247;53.330;-1.180;2023-01-01T13:20:58;5.10;;;1.27;;
14326;SDS011;7247;53.330;-1.180;2023-01-01T13:23:44;3.47;;;1.43;;
14326;SDS011;7247;53.330;-1.180;2023-01-01T13:32:00;3.10;;;1.13;;
14326;SDS011;7247;53.330;-1.180;2023-01-01T13:34:34;4.33;;;1.50;;
14326;SDS011;7247;53.330;-1.180;2023-01-01T13:39:51;5.83;;;1.80;;
14326;SDS011;7247;53.330;-1.180;2023-01-01T13:44:59;6.60;;;1.97;;
14326;SDS011;7247;53.330;-1.180;2023-01-01T13:47:27;6.87;;;1.87;;
14326;SDS011;7247;53.330;-1.180;2023-01-01T13:50:03;5.37;;;1.53;;
14326;SDS011;7247;53.330;-1.180;2023-01-01T13:52:57;6.57;;;1.93;;
14326;SDS011;7247;53.330;-1.180;2023-01-01T13:58:23;7.40;;;2.20;;
14326;SDS011;7247;53.330;-1.180;2023-01-01T14:01:03;5.67;;;2.17;;
14326;SDS011;7247;53.330;-1.180;2023-01-01T14:03:34;6.93;;;2.37;;
14326;SDS011;7247;53.330;-1.180;2023-01-01T14:06:01;7.80;;;2.60;;
14326;SDS011;7247;53.330;-1.180;2023-01-01T14:08:31;12.17;;;2.70;;
14326;SDS011;7247;53.330;-1.180;2023-01-01T14:10:58;7.87;;;2.80;;
14326;SDS011;7247;53.330;-1.180;2023-01-01T14:13:28;9.87;;;2.73;;
14326;SDS011;7247;53.330;-1.180;2023-01-01T14:15:56;8.20;;;3.07;;
14326;SDS011;7247;53.330;-1.180;2023-01-01T14:18:26;11.37;;;3.20;;
14326;SDS011;7247;53.330;-1.180;2023-01-01T14:20:54;12.63;;;3.10;;
14326;SDS011;7247;53.330;-1.180;2023-01-01T14:23:22;14.07;;;3.53;;
14326;SDS011;7247;53.330;-1.180;2023-01-01T14:25:52;11.80;;;2.90;;
14326;SDS011;7247;53.330;-1.180;2023-01-01T14:28:20;16.90;;;3.33;;
14326;SDS011;7247;53.330;-1.180;2023-01-01T14:30:48;17.47;;;3.07;;
14326;SDS011;7247;53.330;-1.180;2023-01-01T14:33:22;15.60;;;3.30;;
14326;SDS011;7247;53.330;-1.180;2023-01-01T14:35:52;11.97;;;3.37;;
14326;SDS011;7247;53.330;-1.180;2023-01-01T14:38:22;15.57;;;3.70;;
14326;SDS011;7247;53.330;-1.180;2023-01-01T14:40:57;10.97;;;2.97;;
14326;SDS011;7247;53.330;-1.180;2023-01-01T14:43:24;21.80;;;3.67;;
14326;SDS011;7247;53.330;-1.180;2023-01-01T14:45:52;15.87;;;4.03;;
14326;SDS011;7247;53.330;-1.180;2023-01-01T14:48:18;15.30;;;3.20;;
14326;SDS011;7247;53.330;-1.180;2023-01-01T14:50:45;16.70;;;3.13;;
14326;SDS011;7247;53.330;-1.180;2023-01-01T14:53:13;15.23;;;3.30;;
14326;SDS011;7247;53.330;-1.180;2023-01-01T14:55:43;13.10;;;3.27;;
14326;SDS011;7247;53.330;-1.180;2023-01-01T14:58:11;16.63;;;3.47;;
14326;SDS011;7247;53.330;-1.180;2023-01-01T15:00:38;12.47;;;3.67;;
14326;SDS011;7247;53.330;-1.180;2023-01-01T15:03:10;15.77;;;4.13;;
14326;SDS011;7247;53.330;-1.180;2023-01-01T15:05:37;17.50;;;4.43;;
14326;SDS011;7247;53.330;-1.180;2023-01-01T15:08:05;18.60;;;4.00;;
14326;SDS011;7247;53.330;-1.180;2023-01-01T15:10:32;15.30;;;4.03;;